Beverly Hills, CA (90209)

9:07 AM PDT on May 22, 2015 (GMT -0700)
Laurel Canyon | | Change Station
CLOSE
Current Station
Personal Weather Station
Location: Los Angeles, CA
Elevation: 1069 ft
Nearby Weather Stations

Elev 1069 ft 34.11 °N, 118.38 °W | Updated 13 minutes ago

Overcast
Overcast
56.7 °F
Feels Like 56.7 °F
N
0.0
Wind Variable Wind from NNW

Today
High -- | Low -- °F
--% Chance of Precip.
Yesterday
High -- | Low -- °F
Precip. -- in
5:47 AM 7:53 PM
Waxing Crescent, 22% visible
Pressure 30.02 in
Visibility 10.0 miles
Clouds Few 2800 ft
Scattered Clouds 5000 ft
Scattered Clouds 9000 ft
Dew Point 52 °F
Humidity 85%
Rainfall 0.00 in
Snow Depth Not available.
UV 3 out of 12
Pollen 4.00 out of 12
Air Quality Not available.
Flu Activity Sporadic
METAR KSMO 221551Z 24006KT 10SM FEW028 SCT050 SCT090 16/11 A3002 RMK AO2 SLP164 T01560111

More Conditions Fewer Conditions

Pressure 30.02 in
Visibility 10.0 miles
Clouds Few 2800 ft
Scattered Clouds 5000 ft
Scattered Clouds 9000 ft
Dew Point 52 °F
Humidity 85%
Rainfall 0.00 in
Snow Depth Not available.
UV 3 out of 12
Pollen 4.00 out of 12
Air Quality Not available.
Flu Activity Sporadic
METAR KSMO 221551Z 24006KT 10SM FEW028 SCT050 SCT090 16/11 A3002 RMK AO2 SLP164 T01560111

More Conditions Fewer Conditions

10-Day Weather Forecast

Almanac

Astronomy

May. 22, 2015 Rise Set
Actual Time
Civil Twilight
Nautical Twilight
Astronomical Twilight
Moon
Length of Visible Light
Length of Day
Tomorrow will be .
, % of the Moon is Illuminated

Today's Extremes

State Highs State Lows

Community

WunderPhotos

Upload Photos

1,823,251 photos uploaded!

WunderBlogs® & News

Nearby

Air Quality

  Air Quality AQ Index Pollutant
Not available.

Snow Depth

Station Depth Elevation

Earthquake Activity

City Distance Mag. Time & Date
Minimum magnitude displayed is 2.5.

Coastal Water Temperatures

Place Temperature

Stations

Nearby Weather Stations

Station Location Temp. Windchill Dew Point Humidity Wind Precip. Elev Updated Type